Time;durP1;ratioP1;P1;durP2;ratioP2;P2;SDS_P1;SDS_P2;PMS_P1;PMS_P2;Temp;Humidity;BMP_temperature;BMP_pressure;BME280_temperature;BME280_humidity;BME280_pressure;Samples;Min_cycle;Max_cycle;Signal;HPM_P1;HPM_P2
2022/11/01 00:01:31;;;;;;;10.52;5.60;;;;;;;18.83;55.78;100840.41;4954882;28;124203;-68
2022/11/01 00:03:59;;;;;;;10.68;5.47;;;;;;;18.84;55.67;100843.97;4955711;28;123818;-68
2022/11/01 00:06:26;;;;;;;17.27;6.13;;;;;;;18.82;55.67;100846.78;4951298;28;114412;-68
2022/11/01 00:08:53;;;;;;;14.10;5.35;;;;;;;18.83;55.75;100843.09;4957648;28;113780;-69
2022/11/01 00:11:20;;;;;;;10.70;5.68;;;;;;;18.83;55.81;100842.25;4955629;28;123807;-69
2022/11/01 00:13:49;;;;;;;15.20;6.03;;;;;;;18.81;55.84;100834.31;4953994;28;124778;-69
2022/11/01 00:16:17;;;;;;;9.50;5.35;;;;;;;18.81;56.08;100834.31;4954846;28;114849;-68
2022/11/01 00:18:45;;;;;;;9.60;5.00;;;;;;;18.81;56.38;100823.59;4959244;28;114259;-69
2022/11/01 00:21:14;;;;;;;11.88;5.50;;;;;;;18.82;56.19;100824.47;4962193;28;123004;-69
2022/11/01 00:23:41;;;;;;;9.48;5.65;;;;;;;18.82;56.47;100825.31;4967896;28;123813;-68
2022/11/01 00:26:13;;;;;;;12.05;5.88;;;;;;;18.84;56.64;100822.50;4963396;28;116220;-68
2022/11/01 00:28:40;;;;;;;9.60;5.30;;;;;;;18.86;56.34;100817.88;4957530;28;113951;-68
2022/11/01 00:31:08;;;;;;;10.90;5.85;;;;;;;18.89;56.46;100824.81;4969830;28;122518;-69
2022/11/01 00:33:38;;;;;;;14.30;5.28;;;;;;;18.90;56.64;100831.91;4958582;28;123823;-69
2022/11/01 00:36:07;;;;;;;12.13;6.38;;;;;;;18.91;56.68;100822.84;4957804;28;114766;-69
2022/11/01 00:38:34;;;;;;;11.77;5.72;;;;;;;18.91;56.48;100812.13;4954797;28;114145;-69
2022/11/01 00:41:03;;;;;;;12.43;5.53;;;;;;;18.92;56.72;100813.84;4954329;28;124346;-69
2022/11/01 00:43:31;;;;;;;11.30;5.22;;;;;;;18.90;56.79;100810.44;4954593;28;123674;-69
2022/11/01 00:45:59;;;;;;;12.38;5.60;;;;;;;18.90;56.83;100810.44;4967839;28;113316;-69
2022/11/01 00:48:27;;;;;;;15.10;5.60;;;;;;;18.90;56.79;100783.59;4955843;28;113909;-69
2022/11/01 00:50:54;;;;;;;11.02;5.43;;;;;;;18.89;56.94;100787.25;4957642;28;124204;-69
2022/11/01 00:53:22;;;;;;;14.23;5.82;;;;;;;18.87;56.80;100782.00;4952587;28;123908;-69
2022/11/01 00:55:49;;;;;;;14.43;5.88;;;;;;;18.86;56.82;100786.50;4958224;28;114169;-69
2022/11/01 00:58:16;;;;;;;9.52;5.68;;;;;;;18.86;57.07;100789.19;4959181;28;113298;-69
2022/11/01 01:00:43;;;;;;;10.18;5.85;;;;;;;18.86;57.09;100788.34;4955170;28;124774;-69
2022/11/01 01:03:10;;;;;;;10.05;5.32;;;;;;;18.86;57.07;100786.50;4953011;28;124764;-69
2022/11/01 01:05:37;;;;;;;12.43;5.75;;;;;;;18.86;57.17;100788.34;4952451;28;113962;-69
2022/11/01 01:08:04;;;;;;;14.68;6.32;;;;;;;18.85;57.30;100787.50;4956148;28;114575;-69
2022/11/01 01:10:31;;;;;;;10.75;6.07;;;;;;;18.86;57.29;100789.19;4958575;28;124305;-69
2022/11/01 01:12:58;;;;;;;10.60;5.88;;;;;;;18.88;57.41;100790.91;4955287;28;123527;-68
2022/11/01 01:15:26;;;;;;;14.95;6.13;;;;;;;18.89;57.40;100787.25;4954082;28;115270;-68
2022/11/01 01:17:53;;;;;;;10.95;5.75;;;;;;;18.88;57.37;100785.56;4964740;28;114807;-69
2022/11/01 01:20:20;;;;;;;9.52;5.50;;;;;;;18.87;57.49;100784.66;4958109;28;123512;-69
2022/11/01 01:22:47;;;;;;;11.57;5.75;;;;;;;18.85;57.45;100776.78;4954279;28;123280;-69
2022/11/01 01:25:15;;;;;;;11.77;5.80;;;;;;;18.84;57.66;100775.06;4956048;28;114382;-68
2022/11/01 01:27:42;;;;;;;12.18;5.45;;;;;;;18.84;57.71;100764.31;4955522;28;113103;-69
2022/11/01 01:30:10;;;;;;;15.30;5.80;;;;;;;18.86;57.96;100767.72;4955387;28;125346;-69
2022/11/01 01:32:37;;;;;;;11.70;5.40;;;;;;;18.90;58.04;100772.84;4953636;28;125562;-69
2022/11/01 01:35:04;;;;;;;9.88;5.05;;;;;;;18.94;58.18;100764.41;4955206;28;114293;-68
2022/11/01 01:37:31;;;;;;;11.75;4.93;;;;;;;18.98;58.33;100759.66;4954676;28;113688;-68
2022/11/01 01:39:59;;;;;;;10.50;5.13;;;;;;;19.02;58.25;100763.78;4953731;28;123871;-69
2022/11/01 01:42:30;;;;;;;13.40;4.75;;;;;;;19.07;58.25;100758.91;4952656;28;123844;-69
2022/11/01 01:44:57;;;;;;;9.88;5.35;;;;;;;19.13;58.33;100753.00;4950925;28;114589;-69
2022/11/01 01:47:32;;;;;;;9.77;4.35;;;;;;;19.18;58.50;100756.19;4965035;28;113881;-69
2022/11/01 01:50:21;;;;;;;7.30;4.35;;;;;;;19.24;58.25;100760.19;4950857;28;122710;-69
2022/11/01 01:53:12;;;;;;;11.00;4.90;;;;;;;19.30;58.31;100764.19;4953558;28;124154;-69
2022/11/01 01:55:46;;;;;;;12.70;4.53;;;;;;;19.35;58.36;100764.69;4950447;28;114701;-69
2022/11/01 01:58:18;;;;;;;10.27;4.30;;;;;;;19.40;58.41;100765.13;4951849;28;114292;-69
2022/11/01 02:00:45;;;;;;;11.57;4.38;;;;;;;19.45;58.29;100762.91;4953666;28;124846;-69
2022/11/01 02:03:13;;;;;;;9.00;4.45;;;;;;;19.49;58.39;100758.97;4951191;28;123476;-68
2022/11/01 02:05:55;;;;;;;9.38;4.22;;;;;;;19.53;58.39;100760.44;4953390;28;116108;-69
2022/11/01 02:08:28;;;;;;;13.20;4.57;;;;;;;19.56;58.30;100757.50;4951546;28;115984;-69
2022/11/01 02:10:59;;;;;;;9.73;4.05;;;;;;;19.61;58.47;100757.97;4946278;28;124792;-68
2022/11/01 02:13:27;;;;;;;7.05;3.97;;;;;;;19.65;58.49;100770.16;4949818;28;123795;-68
2022/11/01 02:16:30;;;;;;;10.75;4.05;;;;;;;19.69;58.36;100761.84;4954544;28;115048;-68
2022/11/01 02:19:15;;;;;;;8.68;4.20;;;;;;;19.73;58.40;100755.25;4888771;28;114187;-69
2022/11/01 02:21:51;;;;;;;7.65;4.25;;;;;;;19.75;58.43;100758.66;4946192;28;123943;-68
2022/11/01 02:25:00;;;;;;;7.93;4.38;;;;;;;19.78;58.40;100763.78;4949317;28;124064;-68
2022/11/01 02:27:41;;;;;;;9.90;4.20;;;;;;;19.80;58.44;100768.03;4954660;28;114686;-68
2022/11/01 02:30:17;;;;;;;11.10;4.40;;;;;;;19.84;58.57;100768.63;4956328;28;113750;-67
2022/11/01 02:33:01;;;;;;;10.32;4.32;;;;;;;19.88;58.39;100764.69;4951610;28;123743;-68
2022/11/01 02:35:40;;;;;;;7.90;4.22;;;;;;;19.93;58.64;100767.84;4950108;28;124569;-68
2022/11/01 02:38:24;;;;;;;8.68;4.28;;;;;;;19.97;58.47;100769.28;4967391;28;113655;-68
2022/11/01 02:40:59;;;;;;;7.72;3.83;;;;;;;20.02;58.37;100772.44;4949783;28;113068;-68
2022/11/01 02:43:53;;;;;;;7.53;3.97;;;;;;;20.07;58.38;100768.47;4956709;28;124836;-68
2022/11/01 02:49:10;;;;;;;9.77;4.45;;;;;;;20.16;58.34;100762.31;4952880;28;113925;-68
2022/11/01 02:51:38;;;;;;;12.93;4.18;;;;;;;20.19;58.04;100756.66;4954573;28;113627;-68
2022/11/01 02:54:07;;;;;;;7.53;3.60;;;;;;;20.21;58.08;100760.94;4953001;28;123908;-69
2022/11/01 02:56:34;;;;;;;9.38;3.90;;;;;;;20.23;58.26;100763.50;4951738;28;125237;-68
2022/11/01 02:59:01;;;;;;;7.60;4.05;;;;;;;20.26;58.05;100754.28;4949642;28;115290;-69
2022/11/01 03:01:33;;;;;;;10.18;4.05;;;;;;;20.27;57.85;100759.53;4949081;28;113124;-68
2022/11/01 03:04:01;;;;;;;9.15;3.85;;;;;;;20.29;57.83;100757.56;4949631;28;124686;-68
2022/11/01 03:06:47;;;;;;;8.73;3.53;;;;;;;20.28;57.83;100766.59;4952336;28;122883;-68
2022/11/01 03:09:15;;;;;;;8.60;4.05;;;;;;;20.30;57.89;100763.78;4950986;28;113130;-69
2022/11/01 03:12:00;;;;;;;9.10;4.10;;;;;;;20.31;57.84;100770.88;4950125;28;114810;-68
2022/11/01 03:14:40;;;;;;;9.95;3.55;;;;;;;20.31;57.72;100771.72;4948897;28;123179;-69
2022/11/01 03:17:15;;;;;;;10.15;3.60;;;;;;;20.32;57.75;100768.03;4951902;28;123126;-68
2022/11/01 03:19:48;;;;;;;8.35;3.75;;;;;;;20.33;57.71;100774.28;4949915;28;114004;-68
2022/11/01 03:22:27;;;;;;;9.85;3.63;;;;;;;20.35;57.66;100773.16;4967263;28;114064;-68
2022/11/01 03:25:37;;;;;;;8.65;3.95;;;;;;;20.35;57.67;100767.78;4948780;28;124369;-69
2022/11/01 03:28:00;;;;;;;7.72;3.25;;;;;;;20.36;57.66;100780.25;4953373;28;123243;-68
2022/11/01 03:30:30;;;;;;;7.20;3.55;;;;;;;20.38;57.71;100783.66;4956147;28;113528;-68
2022/11/01 03:32:57;;;;;;;8.10;3.60;;;;;;;20.39;57.76;100785.34;4959432;28;113318;-69
2022/11/01 03:35:29;;;;;;;8.60;3.67;;;;;;;20.40;57.75;100781.69;4966845;28;124772;-68
2022/11/01 03:38:03;;;;;;;7.55;3.40;;;;;;;20.42;57.70;100785.09;4954649;28;123438;-69
2022/11/01 03:40:33;;;;;;;6.78;3.47;;;;;;;20.44;57.74;100782.28;4959914;28;114506;-68
2022/11/01 03:43:05;;;;;;;13.55;3.95;;;;;;;20.44;57.50;100787.66;4975035;28;113010;-69
2022/11/01 03:45:36;;;;;;;6.47;3.55;;;;;;;20.47;57.65;100781.13;4966098;28;123072;-68
2022/11/01 03:48:04;;;;;;;8.75;3.72;;;;;;;20.49;57.55;100792.63;4975939;28;123911;-68
2022/11/01 03:50:32;;;;;;;7.00;3.50;;;;;;;20.50;57.50;100797.03;4968440;28;115658;-68
2022/11/01 03:52:59;;;;;;;5.72;3.15;;;;;;;20.52;57.40;100800.44;4963835;28;115058;-68
2022/11/01 03:55:26;;;;;;;6.10;3.50;;;;;;;20.52;57.34;100806.66;4964051;28;123216;-69
2022/11/01 03:57:58;;;;;;;10.85;3.58;;;;;;;20.54;57.18;100819.97;4965890;28;125227;-68
2022/11/01 04:00:29;;;;;;;6.00;3.28;;;;;;;20.54;57.19;100819.97;4963426;28;114471;-68
2022/11/01 04:02:57;;;;;;;7.20;3.70;;;;;;;20.52;56.93;100812.03;4968270;28;114096;-69
2022/11/01 04:05:28;;;;;;;10.52;3.10;;;;;;;20.51;56.71;100820.22;4964333;28;123809;-68
2022/11/01 04:07:55;;;;;;;6.18;2.95;;;;;;;20.50;56.45;100834.69;4964755;28;125206;-68
2022/11/01 04:10:24;;;;;;;7.55;3.00;;;;;;;20.50;56.13;100856.22;4979023;28;113776;-68
2022/11/01 04:12:52;;;;;;;4.45;2.20;;;;;;;20.49;55.38;100859.88;4961010;28;114290;-69
2022/11/01 04:21:10;;;;;;;2.58;1.45;;;;;;;20.30;53.05;100880.28;4956956;28;114799;-69
2022/11/01 04:23:37;;;;;;;4.40;1.63;;;;;;;20.23;52.94;100890.72;4952912;28;114142;-69
2022/11/01 04:26:06;;;;;;;2.25;1.15;;;;;;;20.17;52.41;100909.22;4955193;28;122811;-68
2022/11/01 04:28:33;;;;;;;3.45;1.23;;;;;;;20.11;52.18;100910.59;4965815;28;122744;-68
2022/11/01 04:31:00;;;;;;;2.42;1.13;;;;;;;20.06;51.95;100917.34;4971799;28;114754;-68
2022/11/01 04:33:27;;;;;;;3.40;1.20;;;;;;;19.99;51.70;100919.69;4953214;28;113198;-68
2022/11/01 04:35:54;;;;;;;3.17;0.82;;;;;;;19.91;51.18;100936.47;4953696;28;123616;-69
2022/11/01 04:38:21;;;;;;;3.88;1.30;;;;;;;19.85;51.10;100931.59;4969992;28;123978;-68
2022/11/01 04:40:48;;;;;;;4.53;1.23;;;;;;;19.79;50.83;100926.72;4958770;28;115115;-68
2022/11/01 04:43:15;;;;;;;2.75;0.80;;;;;;;19.73;50.75;100948.75;4961351;28;115272;-68
2022/11/01 04:45:42;;;;;;;2.40;1.00;;;;;;;19.67;50.70;100938.47;4953038;28;123986;-68
2022/11/01 04:48:12;;;;;;;2.17;0.90;;;;;;;19.60;50.51;100949.69;4939045;28;123407;-69
2022/11/01 04:50:40;;;;;;;1.98;0.75;;;;;;;19.54;50.47;100943.97;4957071;28;114349;-68
2022/11/01 04:53:09;;;;;;;2.60;0.85;;;;;;;19.47;50.34;100951.66;4952502;28;113951;-68
2022/11/01 04:55:36;;;;;;;5.32;1.00;;;;;;;19.40;50.26;100962.06;4958016;28;123521;-68
2022/11/01 04:58:05;;;;;;;3.20;0.90;;;;;;;19.33;49.97;100962.69;4954361;28;123764;-68
2022/11/01 05:00:33;;;;;;;2.65;0.90;;;;;;;19.26;49.96;100973.91;4955781;28;114484;-68
2022/11/01 05:03:07;;;;;;;5.50;0.80;;;;;;;19.20;49.78;100978.91;4962434;28;111625;-69
2022/11/01 05:05:34;;;;;;;2.03;0.63;;;;;;;19.14;49.74;100985.63;4954319;28;124272;-68
2022/11/01 05:08:04;;;;;;;3.47;0.85;;;;;;;19.08;49.65;100990.63;4969357;28;122993;-68
2022/11/01 05:10:33;;;;;;;1.95;0.80;;;;;;;19.01;49.66;101001.84;4953962;28;114248;-69
2022/11/01 05:13:00;;;;;;;3.70;0.90;;;;;;;18.96;49.54;101003.19;4954721;28;115884;-69
2022/11/01 05:15:28;;;;;;;2.38;0.85;;;;;;;18.90;49.79;101017.09;4958769;28;123981;-68
2022/11/01 05:17:55;;;;;;;4.95;0.80;;;;;;;18.85;49.42;101034.41;4954310;28;123687;-68
2022/11/01 05:20:23;;;;;;;3.40;0.88;;;;;;;18.79;49.48;101032.13;4970838;28;114014;-68
2022/11/01 05:22:50;;;;;;;2.80;0.85;;;;;;;18.76;49.78;101029.72;4961820;28;113594;-69
2022/11/01 05:25:17;;;;;;;3.05;0.98;;;;;;;18.72;49.62;101043.47;4951411;28;123975;-68
2022/11/01 05:27:44;;;;;;;3.35;0.70;;;;;;;18.69;49.63;101049.94;4953893;28;124621;-69
2022/11/01 05:30:12;;;;;;;3.28;1.00;;;;;;;18.64;49.57;101046.72;4956767;28;114935;-68
2022/11/01 05:32:39;;;;;;;2.58;0.90;;;;;;;18.58;49.59;101047.19;4956433;28;114426;-68
2022/11/01 05:35:07;;;;;;;2.72;1.10;;;;;;;18.55;49.66;101052.78;4952056;28;123893;-68
2022/11/01 05:37:34;;;;;;;3.25;0.88;;;;;;;18.51;49.71;101062.03;4953369;28;125041;-68
2022/11/01 05:40:02;;;;;;;3.40;0.90;;;;;;;18.47;49.70;101061.41;4955542;28;114966;-68
2022/11/01 05:42:29;;;;;;;2.78;0.93;;;;;;;18.42;49.56;101069.81;4952757;28;113353;-69
2022/11/01 05:44:56;;;;;;;5.25;1.10;;;;;;;18.39;49.64;101075.41;4955904;28;124651;-68
2022/11/01 05:47:23;;;;;;;3.15;0.82;;;;;;;18.34;49.56;101066.81;4958343;28;124075;-68
2022/11/01 05:49:50;;;;;;;4.57;0.75;;;;;;;18.29;49.58;101074.38;4951995;28;112970;-69
2022/11/01 05:52:17;;;;;;;4.30;0.80;;;;;;;18.24;49.72;101080.06;4953840;28;113967;-68
2022/11/01 05:54:44;;;;;;;3.90;1.05;;;;;;;18.22;49.66;101083.84;4951025;28;124198;-68
2022/11/01 05:57:11;;;;;;;4.47;1.00;;;;;;;18.19;49.89;101086.72;4954439;28;123607;-68
2022/11/01 05:59:38;;;;;;;4.00;0.82;;;;;;;18.16;49.90;101084.25;4960749;28;114886;-68
2022/11/01 06:02:05;;;;;;;3.45;0.82;;;;;;;18.13;49.86;101089.88;4961202;28;114002;-69
2022/11/01 06:04:32;;;;;;;3.17;1.10;;;;;;;18.11;50.08;101097.16;4960184;28;124373;-68
2022/11/01 06:06:59;;;;;;;3.10;0.95;;;;;;;18.07;49.95;101097.38;4960426;28;122956;-68
2022/11/01 06:09:26;;;;;;;5.03;1.08;;;;;;;18.03;50.01;101111.13;4956215;28;115002;-68
2022/11/01 06:11:53;;;;;;;6.90;1.00;;;;;;;17.98;50.10;101103.41;4967377;28;114053;-69
2022/11/01 06:14:20;;;;;;;3.97;1.20;;;;;;;17.96;50.18;101105.34;4951155;28;123094;-68
2022/11/01 06:16:47;;;;;;;2.47;0.90;;;;;;;17.92;50.20;101114.56;4951416;28;123899;-68
2022/11/01 06:19:14;;;;;;;3.28;1.25;;;;;;;17.89;50.29;101120.13;4957357;28;115357;-68
2022/11/01 06:21:41;;;;;;;2.65;0.80;;;;;;;17.84;50.13;101116.94;4955334;28;114134;-68
2022/11/01 06:24:10;;;;;;;2.20;0.70;;;;;;;17.81;50.13;101128.69;4955305;28;124065;-69
2022/11/01 06:26:37;;;;;;;2.50;0.80;;;;;;;17.79;50.01;101119.06;4950984;28;124490;-68
2022/11/01 06:29:04;;;;;;;4.40;0.90;;;;;;;17.76;49.91;101130.00;4951830;28;115092;-68
2022/11/01 06:31:31;;;;;;;8.65;1.13;;;;;;;17.75;49.95;101133.66;4954934;28;114190;-68
2022/11/01 06:33:58;;;;;;;2.53;0.93;;;;;;;17.71;50.00;101144.56;4949072;28;123768;-69
2022/11/01 06:36:25;;;;;;;3.72;1.00;;;;;;;17.68;49.94;101155.50;4953505;28;124586;-68
2022/11/01 06:38:52;;;;;;;3.53;0.70;;;;;;;17.65;49.97;101154.84;4954456;28;114538;-68
2022/11/01 06:41:19;;;;;;;4.18;0.98;;;;;;;17.62;50.29;101155.94;4951717;28;114185;-68
2022/11/01 06:43:47;;;;;;;2.33;0.85;;;;;;;17.59;49.87;101166.00;4950854;28;124018;-68
2022/11/01 06:46:14;;;;;;;2.55;0.80;;;;;;;17.55;49.96;101168.03;4956430;28;124439;-68
2022/11/01 06:48:41;;;;;;;4.93;1.00;;;;;;;17.50;49.96;101172.88;4964064;28;113366;-69
2022/11/01 06:51:08;;;;;;;1.65;0.50;;;;;;;17.48;49.70;101153.38;4971285;28;114191;-68
2022/11/01 06:53:35;;;;;;;3.25;0.80;;;;;;;17.46;49.95;101165.97;4955466;28;125270;-68
2022/11/01 06:56:02;;;;;;;5.47;1.38;;;;;;;17.44;49.84;101168.78;4953935;28;123569;-68
2022/11/01 06:58:30;;;;;;;3.78;0.80;;;;;;;17.42;49.83;101172.50;4954673;28;114953;-68
2022/11/01 07:01:00;;;;;;;3.00;0.80;;;;;;;17.41;50.04;101184.22;4953760;28;112794;-68
2022/11/01 07:03:27;;;;;;;3.90;0.90;;;;;;;17.36;49.93;101180.97;4950835;28;124022;-68
2022/11/01 07:05:58;;;;;;;4.43;1.10;;;;;;;17.36;50.06;101187.19;4950103;28;123939;-68
2022/11/01 07:08:25;;;;;;;2.50;0.70;;;;;;;17.34;50.03;101198.97;4951612;28;115743;-68
2022/11/01 07:10:52;;;;;;;5.35;1.00;;;;;;;17.31;50.17;101200.91;4951453;28;115434;-68
2022/11/01 07:13:19;;;;;;;5.55;1.08;;;;;;;17.29;50.07;101200.16;4950483;28;123875;-68
2022/11/01 07:15:46;;;;;;;4.13;0.90;;;;;;;17.28;50.36;101201.09;4952194;28;124995;-68
2022/11/01 07:18:13;;;;;;;4.45;1.65;;;;;;;17.28;50.28;101219.81;4950706;28;114960;-68
2022/11/01 07:20:40;;;;;;;4.63;0.80;;;;;;;17.27;50.10;101225.28;4950430;28;113864;-68
2022/11/01 07:23:14;;;;;;;3.17;0.93;;;;;;;17.27;50.27;101219.94;4948589;28;124075;-68
2022/11/01 07:25:42;;;;;;;4.50;0.90;;;;;;;17.27;50.32;101226.16;4952490;28;122682;-68
2022/11/01 07:28:09;;;;;;;7.32;1.13;;;;;;;17.27;50.32;101236.88;4954815;28;113156;-68
2022/11/01 07:30:37;;;;;;;4.65;1.00;;;;;;;17.27;50.36;101236.00;4950494;28;113071;-69
2022/11/01 07:33:04;;;;;;;4.32;0.98;;;;;;;17.27;50.39;101239.53;4954915;28;124292;-69
2022/11/01 07:35:33;;;;;;;3.70;0.80;;;;;;;17.25;50.20;101238.78;4953261;28;123889;-69
2022/11/01 07:38:00;;;;;;;4.13;1.23;;;;;;;17.26;50.29;101251.19;4957401;28;114110;-69
2022/11/01 07:40:32;;;;;;;6.60;1.30;;;;;;;17.25;50.51;101259.31;4961099;28;113069;-69
2022/11/01 07:43:01;;;;;;;6.32;1.15;;;;;;;17.24;50.56;101255.81;4972449;28;123792;-68
2022/11/01 07:45:32;;;;;;;4.38;1.33;;;;;;;17.23;50.52;101262.09;4955633;28;122388;-69
2022/11/01 07:48:01;;;;;;;5.80;1.50;;;;;;;17.23;50.66;101283.53;4962599;28;114327;-69
2022/11/01 07:50:30;;;;;;;4.88;1.00;;;;;;;17.22;50.59;101281.81;4956093;28;113175;-69
2022/11/01 07:53:00;;;;;;;8.70;1.58;;;;;;;17.22;50.60;101287.16;4956941;28;122922;-68
2022/11/01 07:55:27;;;;;;;5.30;1.52;;;;;;;17.21;50.46;101290.78;4941351;28;123148;-69
2022/11/01 07:58:04;;;;;;;7.28;1.48;;;;;;;17.22;50.54;101281.81;4955397;28;115183;-69
2022/11/01 08:00:32;;;;;;;8.57;1.50;;;;;;;17.20;50.59;101283.75;4953192;28;115102;-68
2022/11/01 08:03:07;;;;;;;8.70;1.48;;;;;;;17.21;50.38;101289.94;4957977;28;124200;-68
2022/11/01 08:05:35;;;;;;;5.88;1.48;;;;;;;17.20;50.35;101289.09;4954267;28;125395;-68
2022/11/01 08:08:04;;;;;;;5.43;1.20;;;;;;;17.21;50.50;101295.28;4959925;28;114313;-68
2022/11/01 08:10:33;;;;;;;11.40;1.67;;;;;;;17.19;50.43;101287.38;4954912;28;113691;-69
2022/11/01 08:13:12;;;;;;;7.35;1.23;;;;;;;17.19;50.42;101303.41;4950398;28;122323;-69
2022/11/01 08:15:40;;;;;;;5.25;1.40;;;;;;;17.20;50.53;101298.94;4948354;28;123840;-69
2022/11/01 08:18:07;;;;;;;8.68;1.48;;;;;;;17.21;50.46;101312.22;4958260;28;114985;-69
2022/11/01 08:20:35;;;;;;;7.00;1.30;;;;;;;17.22;50.52;101313.94;4956517;28;114274;-69
2022/11/01 08:23:02;;;;;;;5.03;1.25;;;;;;;17.23;50.57;101310.28;4968250;28;123292;-69
2022/11/01 08:25:30;;;;;;;7.22;1.42;;;;;;;17.25;50.39;101318.22;4957104;28;123679;-68
2022/11/01 08:28:02;;;;;;;8.23;1.73;;;;;;;17.24;50.23;101322.72;4956105;28;114708;-68
2022/11/01 08:30:30;;;;;;;8.13;1.50;;;;;;;17.24;50.25;101316.53;4955668;28;114873;-69
2022/11/01 08:32:59;;;;;;;9.02;1.67;;;;;;;17.25;50.33;101335.16;4958181;28;125166;-68
2022/11/01 08:35:27;;;;;;;10.40;1.80;;;;;;;17.24;49.89;101325.41;4951764;28;123616;-69
2022/11/01 08:37:54;;;;;;;8.25;2.10;;;;;;;17.25;49.97;101329.81;4954668;28;114570;-69
2022/11/01 08:40:21;;;;;;;7.25;1.60;;;;;;;17.24;49.77;101322.72;4956988;28;113765;-68
2022/11/01 08:42:49;;;;;;;7.93;1.58;;;;;;;17.25;49.84;101335.16;4955223;28;123818;-68
2022/11/01 08:45:16;;;;;;;9.15;1.52;;;;;;;17.27;49.88;101338.59;4953888;28;123751;-68
2022/11/01 08:47:43;;;;;;;12.63;2.08;;;;;;;17.29;49.94;101336.69;4957559;28;116738;-68
2022/11/01 08:50:14;;;;;;;9.10;1.88;;;;;;;17.32;49.60;101341.81;4957131;28;115220;-68
2022/11/01 08:52:41;;;;;;;14.70;2.08;;;;;;;17.35;49.53;101350.59;4954782;28;124020;-69
2022/11/01 08:55:09;;;;;;;11.85;2.00;;;;;;;17.36;49.47;101349.66;4958305;28;123952;-68
2022/11/01 08:57:37;;;;;;;12.05;2.30;;;;;;;17.39;49.40;101354.81;4958937;28;113885;-69
2022/11/01 09:00:11;;;;;;;12.98;2.03;;;;;;;17.41;49.40;101352.91;4957133;28;113522;-68
2022/11/01 09:02:41;;;;;;;10.43;1.88;;;;;;;17.44;49.38;101344.66;4973107;28;123997;-69
2022/11/01 09:05:08;;;;;;;9.70;2.08;;;;;;;17.48;49.47;101359.56;4965326;28;124687;-69
2022/11/01 09:07:36;;;;;;;9.95;1.80;;;;;;;17.51;49.12;101356.69;4967617;28;114093;-69
2022/11/01 09:10:04;;;;;;;9.25;1.90;;;;;;;17.53;48.87;101360.09;4969931;28;114140;-69
2022/11/01 09:12:31;;;;;;;9.02;2.13;;;;;;;17.56;49.25;101354.56;4956193;28;123850;-69
2022/11/01 09:14:58;;;;;;;8.55;1.63;;;;;;;17.59;49.16;101359.69;4968436;28;123780;-69
2022/11/01 09:17:25;;;;;;;10.65;1.85;;;;;;;17.65;48.86;101359.31;4965350;28;114260;-68
2022/11/01 09:19:52;;;;;;;9.35;2.08;;;;;;;17.66;48.89;101358.34;4964945;28;112802;-69
2022/11/01 09:22:19;;;;;;;11.02;2.17;;;;;;;17.70;48.95;101362.50;4952019;28;124009;-69
2022/11/01 09:24:46;;;;;;;12.00;2.05;;;;;;;17.74;48.97;101365.00;4971354;28;123856;-69
2022/11/01 09:27:15;;;;;;;10.10;2.10;;;;;;;17.78;49.07;101364.72;4970725;28;114250;-69
2022/11/01 09:29:42;;;;;;;14.35;2.22;;;;;;;17.82;48.84;101359.97;4971354;28;114350;-69
2022/11/01 09:32:14;;;;;;;10.80;2.17;;;;;;;17.86;48.59;101377.63;4969120;28;124084;-69
2022/11/01 09:34:41;;;;;;;9.63;1.73;;;;;;;17.90;48.63;101381.81;4952729;28;123140;-69
2022/11/01 09:37:08;;;;;;;10.73;2.00;;;;;;;17.93;48.66;101384.25;4949803;28;114614;-69
2022/11/01 09:39:35;;;;;;;10.40;2.08;;;;;;;17.99;48.57;101378.50;4951683;28;114834;-69
2022/11/01 09:42:09;;;;;;;9.20;1.90;;;;;;;18.02;48.66;101389.00;4970680;28;123744;-69
2022/11/01 09:44:41;;;;;;;7.45;1.77;;;;;;;18.07;48.42;101381.50;4969538;28;123926;-69
2022/11/01 09:47:22;;;;;;;10.75;2.08;;;;;;;18.09;48.56;101390.31;4952162;28;114480;-68
2022/11/01 09:49:59;;;;;;;8.43;1.85;;;;;;;18.13;48.46;101395.47;4953286;28;114724;-69
2022/11/01 09:52:26;;;;;;;12.13;2.00;;;;;;;18.17;48.59;101391.63;4951200;28;124643;-69
2022/11/01 09:54:53;;;;;;;8.88;1.98;;;;;;;18.22;48.50;101395.69;4965693;28;123700;-68
2022/11/01 09:57:33;;;;;;;10.30;1.63;;;;;;;18.30;48.25;101387.13;4952511;28;114576;-69
2022/11/01 10:00:18;;;;;;;13.30;2.05;;;;;;;18.35;48.47;101401.09;4947368;28;113909;-68
2022/11/01 10:03:04;;;;;;;;;;;;;;;18.38;48.96;101416.94;4949851;28;125462;-69
2022/11/01 10:06:02;;;;;;;9.55;1.52;;;;;;;18.42;48.56;101431.88;4950829;28;123903;-69
2022/11/01 10:08:54;;;;;;;8.00;1.88;;;;;;;18.46;48.37;101428.03;4963772;28;114586;-69
2022/11/01 10:11:53;;;;;;;11.48;2.10;;;;;;;18.46;48.31;101446.78;4959543;28;114063;-69
2022/11/01 10:14:48;;;;;;;11.30;2.03;;;;;;;18.45;48.38;101434.34;4968207;28;124438;-68
2022/11/01 10:17:18;;;;;;;9.35;2.00;;;;;;;18.51;48.35;101448.31;4970192;28;123861;-69
2022/11/01 10:19:49;;;;;;;7.93;1.83;;;;;;;18.55;48.09;101450.66;4970892;28;114333;-68
2022/11/01 10:22:21;;;;;;;15.25;1.95;;;;;;;18.59;48.07;101456.66;4971732;28;113747;-68
2022/11/01 10:24:55;;;;;;;5.75;1.85;;;;;;;18.64;48.17;101443.81;4956164;28;124163;-68
2022/11/01 10:27:53;;;;;;;7.18;1.63;;;;;;;18.66;48.03;101441.88;4969485;28;124105;-69
2022/11/01 10:30:21;;;;;;;10.48;2.05;;;;;;;18.72;48.13;101452.16;4969671;28;115151;-69
2022/11/01 10:32:52;;;;;;;11.48;2.05;;;;;;;18.79;48.13;101453.47;4970006;28;115799;-69
2022/11/01 10:35:41;;;;;;;17.98;2.60;;;;;;;18.83;48.09;101444.25;4961446;28;124181;-69
2022/11/01 10:38:25;;;;;;;12.27;2.08;;;;;;;18.89;47.98;101452.84;4964482;28;123359;-69
2022/11/01 10:41:51;;;;;;;8.63;2.05;;;;;;;18.94;47.89;101451.56;4961643;28;114951;-68
2022/11/01 10:44:28;;;;;;;7.10;2.00;;;;;;;18.99;48.12;101453.94;4965256;28;114697;-68
2022/11/01 10:46:59;;;;;;;8.07;2.20;;;;;;;19.07;48.23;101456.91;4970787;28;122924;-68
2022/11/01 10:49:31;;;;;;;7.72;1.80;;;;;;;19.13;47.70;101451.09;4967695;28;122641;-68
2022/11/01 10:52:30;;;;;;;14.65;2.42;;;;;;;19.19;47.76;101461.44;4954280;28;115054;-68
2022/11/01 10:54:59;;;;;;;11.43;2.30;;;;;;;19.26;47.60;101446.56;4955225;28;114102;-68
2022/11/01 10:57:39;;;;;;;7.40;2.00;;;;;;;19.32;47.56;101455.16;4958891;28;124330;-68
2022/11/01 11:00:14;;;;;;;7.63;1.80;;;;;;;19.35;47.57;101455.81;4951009;28;123458;-68
2022/11/01 11:02:46;;;;;;;9.95;1.83;;;;;;;19.38;47.20;101460.06;4961058;28;114709;-68
2022/11/01 11:05:14;;;;;;;9.30;1.80;;;;;;;19.41;47.21;101449.13;4956612;28;113147;-68
2022/11/01 11:07:43;;;;;;;13.70;2.05;;;;;;;19.44;47.14;101454.28;4952291;28;124774;-68
2022/11/01 11:10:23;;;;;;;9.77;2.03;;;;;;;19.49;47.04;101449.41;4953161;28;123907;-68
2022/11/01 11:12:56;;;;;;;11.27;2.00;;;;;;;19.52;47.08;101457.25;4960971;28;115140;-69
2022/11/01 11:15:46;;;;;;;11.65;2.00;;;;;;;19.55;47.02;101457.03;4956092;28;113989;-68
2022/11/01 11:18:23;;;;;;;9.75;2.10;;;;;;;19.57;46.88;101455.09;4968745;28;124423;-68
2022/11/01 11:20:58;;;;;;;7.55;1.77;;;;;;;19.61;46.59;101458.44;4956802;28;122937;-68
2022/11/01 11:23:32;;;;;;;9.35;1.70;;;;;;;19.64;46.55;101450.97;4957206;28;116834;-68
2022/11/01 11:26:02;;;;;;;9.73;2.15;;;;;;;19.70;46.42;101454.19;4950446;28;114770;-69
2022/11/01 11:28:32;;;;;;;7.88;1.98;;;;;;;19.72;46.50;101462.97;4953499;28;123929;-68
2022/11/01 11:31:19;;;;;;;10.07;2.28;;;;;;;19.75;46.42;101455.59;4950479;28;123574;-68
2022/11/01 11:34:00;;;;;;;11.40;1.90;;;;;;;19.80;46.43;101460.66;4956910;28;113151;-68
2022/11/01 11:36:31;;;;;;;16.27;2.15;;;;;;;19.84;46.52;101456.75;4960441;28;113753;-68
2022/11/01 11:38:59;;;;;;;9.68;1.92;;;;;;;19.90;46.17;101445.53;4965048;28;124045;-68
2022/11/01 11:41:32;;;;;;;8.73;2.22;;;;;;;19.96;46.02;101458.50;4965535;28;123805;-68